sensor_id;sensor_type;location;lat;lon;timestamp;pressure;altitude;pressure_sealevel;temperature;humidity
55217;BME280;41086;46.736;15.666;2023-02-22T00:01:33;98535.88;;;1.81;100.00
55217;BME280;41086;46.736;15.666;2023-02-22T00:04:13;98524.97;;;1.40;100.00
55217;BME280;41086;46.736;15.666;2023-02-22T00:06:41;98531.84;;;1.42;100.00
55217;BME280;41086;46.736;15.666;2023-02-22T00:09:08;98537.44;;;1.30;100.00
55217;BME280;41086;46.736;15.666;2023-02-22T00:11:35;98524.81;;;1.16;100.00
55217;BME280;41086;46.736;15.666;2023-02-22T00:14:04;98517.84;;;1.45;100.00
55217;BME280;41086;46.736;15.666;2023-02-22T00:16:31;98495.41;;;1.66;100.00
55217;BME280;41086;46.736;15.666;2023-02-22T00:18:58;98501.59;;;1.63;100.00
55217;BME280;41086;46.736;15.666;2023-02-22T00:21:24;98524.44;;;1.57;100.00
55217;BME280;41086;46.736;15.666;2023-02-22T00:23:51;98524.56;;;1.52;100.00
55217;BME280;41086;46.736;15.666;2023-02-22T00:26:21;98533.41;;;1.48;100.00
55217;BME280;41086;46.736;15.666;2023-02-22T00:28:53;98532.94;;;1.35;100.00
55217;BME280;41086;46.736;15.666;2023-02-22T00:31:20;98509.34;;;1.66;100.00
55217;BME280;41086;46.736;15.666;2023-02-22T00:33:48;98502.31;;;1.68;100.00
55217;BME280;41086;46.736;15.666;2023-02-22T00:36:15;98514.47;;;1.69;100.00
55217;BME280;41086;46.736;15.666;2023-02-22T00:38:42;98526.19;;;1.56;100.00
55217;BME280;41086;46.736;15.666;2023-02-22T00:41:11;98528.22;;;1.46;100.00
55217;BME280;41086;46.736;15.666;2023-02-22T00:43:37;98522.16;;;1.46;100.00
55217;BME280;41086;46.736;15.666;2023-02-22T00:46:04;98528.22;;;1.46;100.00
55217;BME280;41086;46.736;15.666;2023-02-22T00:48:31;98537.81;;;1.46;100.00
55217;BME280;41086;46.736;15.666;2023-02-22T00:50:58;98519.97;;;1.32;100.00
55217;BME280;41086;46.736;15.666;2023-02-22T00:53:25;98536.50;;;1.32;100.00
55217;BME280;41086;46.736;15.666;2023-02-22T00:55:52;98531.66;;;1.20;100.00
55217;BME280;41086;46.736;15.666;2023-02-22T00:58:19;98537.13;;;1.11;100.00
55217;BME280;41086;46.736;15.666;2023-02-22T01:00:46;98534.84;;;1.00;100.00
55217;BME280;41086;46.736;15.666;2023-02-22T01:03:16;98528.81;;;0.98;100.00
55217;BME280;41086;46.736;15.666;2023-02-22T01:05:44;98532.19;;;1.02;100.00
55217;BME280;41086;46.736;15.666;2023-02-22T01:08:13;98525.09;;;1.07;100.00
55217;BME280;41086;46.736;15.666;2023-02-22T01:10:40;98533.94;;;1.01;100.00
55217;BME280;41086;46.736;15.666;2023-02-22T01:13:08;98524.66;;;0.91;100.00
55217;BME280;41086;46.736;15.666;2023-02-22T01:15:40;98518.19;;;0.75;100.00
55217;BME280;41086;46.736;15.666;2023-02-22T01:18:07;98515.31;;;0.84;100.00
55217;BME280;41086;46.736;15.666;2023-02-22T01:20:35;98513.94;;;1.00;100.00
55217;BME280;41086;46.736;15.666;2023-02-22T01:23:03;98513.56;;;0.84;100.00
55217;BME280;41086;46.736;15.666;2023-02-22T01:25:33;98509.63;;;0.70;100.00
55217;BME280;41086;46.736;15.666;2023-02-22T01:28:01;98495.41;;;0.50;100.00
55217;BME280;41086;46.736;15.666;2023-02-22T01:30:30;98515.66;;;0.40;100.00
55217;BME280;41086;46.736;15.666;2023-02-22T01:32:59;98505.03;;;0.15;100.00
55217;BME280;41086;46.736;15.666;2023-02-22T01:35:35;98501.22;;;0.27;100.00
55217;BME280;41086;46.736;15.666;2023-02-22T01:38:03;98484.81;;;0.24;100.00
55217;BME280;41086;46.736;15.666;2023-02-22T01:40:33;98499.94;;;0.43;100.00
55217;BME280;41086;46.736;15.666;2023-02-22T01:43:05;98505.16;;;0.43;100.00
55217;BME280;41086;46.736;15.666;2023-02-22T01:45:48;98492.75;;;0.52;100.00
55217;BME280;41086;46.736;15.666;2023-02-22T01:51:20;98490.41;;;0.74;100.00
55217;BME280;41086;46.736;15.666;2023-02-22T01:53:55;98484.78;;;0.87;100.00
55217;BME280;41086;46.736;15.666;2023-02-22T01:56:25;98488.75;;;0.99;100.00
55217;BME280;41086;46.736;15.666;2023-02-22T01:59:04;98475.59;;;1.04;100.00
55217;BME280;41086;46.736;15.666;2023-02-22T02:01:35;98496.41;;;1.05;100.00
55217;BME280;41086;46.736;15.666;2023-02-22T02:04:06;98499.50;;;0.90;100.00
55217;BME280;41086;46.736;15.666;2023-02-22T02:06:36;98490.50;;;0.71;100.00
55217;BME280;41086;46.736;15.666;2023-02-22T02:09:18;98506.28;;;0.64;100.00
55217;BME280;41086;46.736;15.666;2023-02-22T02:11:47;98488.88;;;0.65;100.00
55217;BME280;41086;46.736;15.666;2023-02-22T02:14:15;98485.41;;;0.66;100.00
55217;BME280;41086;46.736;15.666;2023-02-22T02:16:48;98497.28;;;0.76;100.00
55217;BME280;41086;46.736;15.666;2023-02-22T02:25:06;98487.53;;;0.81;100.00
55217;BME280;41086;46.736;15.666;2023-02-22T02:38:49;98475.75;;;0.38;100.00
55217;BME280;41086;46.736;15.666;2023-02-22T02:41:28;98472.56;;;0.58;100.00
55217;BME280;41086;46.736;15.666;2023-02-22T02:44:01;98456.56;;;0.41;100.00
55217;BME280;41086;46.736;15.666;2023-02-22T02:46:39;98485.94;;;0.46;100.00
55217;BME280;41086;46.736;15.666;2023-02-22T02:49:15;98479.09;;;0.43;100.00
55217;BME280;41086;46.736;15.666;2023-02-22T02:51:49;98483.56;;;0.38;100.00
55217;BME280;41086;46.736;15.666;2023-02-22T02:54:17;98488.91;;;0.34;100.00
55217;BME280;41086;46.736;15.666;2023-02-22T02:56:46;98481.56;;;0.15;100.00
55217;BME280;41086;46.736;15.666;2023-02-22T02:59:31;98469.66;;;0.07;100.00
55217;BME280;41086;46.736;15.666;2023-02-22T03:08:17;98476.88;;;0.28;100.00
55217;BME280;41086;46.736;15.666;2023-02-22T03:10:48;98485.47;;;0.32;100.00
55217;BME280;41086;46.736;15.666;2023-02-22T03:16:48;98488.63;;;0.12;100.00
55217;BME280;41086;46.736;15.666;2023-02-22T03:22:14;98484.88;;;-0.11;100.00
55217;BME280;41086;46.736;15.666;2023-02-22T03:24:48;98490.56;;;-0.31;100.00
55217;BME280;41086;46.736;15.666;2023-02-22T03:27:25;98490.63;;;-0.32;100.00
55217;BME280;41086;46.736;15.666;2023-02-22T03:30:01;98490.56;;;-0.31;100.00
55217;BME280;41086;46.736;15.666;2023-02-22T03:32:35;98473.91;;;-0.25;100.00
55217;BME280;41086;46.736;15.666;2023-02-22T03:35:24;98483.25;;;-0.16;100.00
55217;BME280;41086;46.736;15.666;2023-02-22T03:37:58;98476.22;;;-0.13;100.00
55217;BME280;41086;46.736;15.666;2023-02-22T03:40:32;98483.13;;;-0.10;100.00
55217;BME280;41086;46.736;15.666;2023-02-22T03:43:13;98481.44;;;-0.13;100.00
55217;BME280;41086;46.736;15.666;2023-02-22T03:45:44;98491.03;;;-0.15;100.00
55217;BME280;41086;46.736;15.666;2023-02-22T03:48:26;98492.88;;;-0.18;100.00
55217;BME280;41086;46.736;15.666;2023-02-22T03:50:59;98495.50;;;-0.20;100.00
55217;BME280;41086;46.736;15.666;2023-02-22T03:53:33;98479.22;;;-0.28;100.00
55217;BME280;41086;46.736;15.666;2023-02-22T03:56:02;98484.22;;;-0.19;100.00
55217;BME280;41086;46.736;15.666;2023-02-22T03:58:33;98468.50;;;-0.16;100.00
55217;BME280;41086;46.736;15.666;2023-02-22T04:01:02;98482.22;;;-0.09;100.00
55217;BME280;41086;46.736;15.666;2023-02-22T04:03:29;98495.25;;;-0.09;100.00
55217;BME280;41086;46.736;15.666;2023-02-22T04:05:56;98493.66;;;-0.15;100.00
55217;BME280;41086;46.736;15.666;2023-02-22T04:08:23;98489.41;;;-0.19;100.00
55217;BME280;41086;46.736;15.666;2023-02-22T04:10:51;98488.69;;;-0.24;100.00
55217;BME280;41086;46.736;15.666;2023-02-22T04:13:21;98468.38;;;-0.46;100.00
55217;BME280;41086;46.736;15.666;2023-02-22T04:15:50;98484.59;;;-0.34;100.00
55217;BME280;41086;46.736;15.666;2023-02-22T04:18:16;98485.50;;;-0.37;100.00
55217;BME280;41086;46.736;15.666;2023-02-22T04:20:45;98486.63;;;-0.47;100.00
55217;BME280;41086;46.736;15.666;2023-02-22T04:23:22;98490.22;;;-0.51;100.00
55217;BME280;41086;46.736;15.666;2023-02-22T04:25:49;98486.94;;;-0.61;100.00
55217;BME280;41086;46.736;15.666;2023-02-22T04:28:16;98480.13;;;-0.65;100.00
55217;BME280;41086;46.736;15.666;2023-02-22T04:30:49;98472.31;;;-0.65;100.00
55217;BME280;41086;46.736;15.666;2023-02-22T04:33:18;98476.53;;;-0.61;100.00
55217;BME280;41086;46.736;15.666;2023-02-22T04:35:45;98473.75;;;-0.53;100.00
55217;BME280;41086;46.736;15.666;2023-02-22T04:38:12;98466.84;;;-0.54;100.00
55217;BME280;41086;46.736;15.666;2023-02-22T04:40:39;98481.66;;;-0.56;100.00
55217;BME280;41086;46.736;15.666;2023-02-22T04:43:06;98475.75;;;-0.64;100.00
55217;BME280;41086;46.736;15.666;2023-02-22T04:45:33;98478.38;;;-0.64;100.00
55217;BME280;41086;46.736;15.666;2023-02-22T04:48:02;98467.81;;;-0.60;100.00
55217;BME280;41086;46.736;15.666;2023-02-22T04:50:28;98463.44;;;-0.56;100.00
55217;BME280;41086;46.736;15.666;2023-02-22T04:52:55;98468.47;;;-0.50;100.00
55217;BME280;41086;46.736;15.666;2023-02-22T04:55:22;98455.63;;;-0.58;100.00
55217;BME280;41086;46.736;15.666;2023-02-22T04:57:49;98476.72;;;-0.69;100.00
55217;BME280;41086;46.736;15.666;2023-02-22T05:00:17;98472.09;;;-0.57;100.00
55217;BME280;41086;46.736;15.666;2023-02-22T05:02:44;98468.44;;;-0.49;100.00
55217;BME280;41086;46.736;15.666;2023-02-22T05:05:13;98473.50;;;-0.42;100.00
55217;BME280;41086;46.736;15.666;2023-02-22T05:07:41;98456.94;;;-0.40;100.00
55217;BME280;41086;46.736;15.666;2023-02-22T05:10:08;98476.28;;;-0.50;100.00
55217;BME280;41086;46.736;15.666;2023-02-22T05:12:36;98490.47;;;-0.62;100.00
55217;BME280;41086;46.736;15.666;2023-02-22T05:15:04;98479.31;;;-0.69;100.00
55217;BME280;41086;46.736;15.666;2023-02-22T05:17:33;98467.81;;;-0.60;100.00
55217;BME280;41086;46.736;15.666;2023-02-22T05:20:01;98449.47;;;-0.54;100.00
55217;BME280;41086;46.736;15.666;2023-02-22T05:22:28;98464.84;;;-0.43;100.00
55217;BME280;41086;46.736;15.666;2023-02-22T05:24:55;98459.63;;;-0.43;100.00
55217;BME280;41086;46.736;15.666;2023-02-22T05:27:22;98453.44;;;-0.39;100.00
55217;BME280;41086;46.736;15.666;2023-02-22T05:29:49;98475.19;;;-0.40;100.00
55217;BME280;41086;46.736;15.666;2023-02-22T05:32:16;98490.97;;;-0.48;100.00
55217;BME280;41086;46.736;15.666;2023-02-22T05:34:42;98490.38;;;-0.59;100.00
55217;BME280;41086;46.736;15.666;2023-02-22T05:37:09;98487.19;;;-0.70;100.00
55217;BME280;41086;46.736;15.666;2023-02-22T05:39:36;98502.88;;;-0.73;100.00
55217;BME280;41086;46.736;15.666;2023-02-22T05:42:03;98502.97;;;-0.79;100.00
55217;BME280;41086;46.736;15.666;2023-02-22T05:44:29;98499.69;;;-0.86;100.00
55217;BME280;41086;46.736;15.666;2023-02-22T05:46:56;98498.91;;;-0.90;100.00
55217;BME280;41086;46.736;15.666;2023-02-22T05:49:23;98508.50;;;-0.93;100.00
55217;BME280;41086;46.736;15.666;2023-02-22T05:51:50;98512.19;;;-1.03;100.00
55217;BME280;41086;46.736;15.666;2023-02-22T05:54:17;98508.94;;;-1.13;100.00
55217;BME280;41086;46.736;15.666;2023-02-22T05:56:43;98509.09;;;-1.21;100.00
55217;BME280;41086;46.736;15.666;2023-02-22T05:59:10;98509.03;;;-1.18;100.00
55217;BME280;41086;46.736;15.666;2023-02-22T06:01:37;98508.25;;;-1.21;100.00
55217;BME280;41086;46.736;15.666;2023-02-22T06:04:04;98503.00;;;-1.20;100.00
55217;BME280;41086;46.736;15.666;2023-02-22T06:06:31;98501.13;;;-1.13;100.00
55217;BME280;41086;46.736;15.666;2023-02-22T06:08:58;98504.53;;;-1.09;100.00
55217;BME280;41086;46.736;15.666;2023-02-22T06:11:25;98501.13;;;-1.13;100.00
55217;BME280;41086;46.736;15.666;2023-02-22T06:13:52;98492.28;;;-1.06;100.00
55217;BME280;41086;46.736;15.666;2023-02-22T06:16:20;98478.66;;;-1.16;100.00
55217;BME280;41086;46.736;15.666;2023-02-22T06:18:48;98497.25;;;-0.94;100.00
55217;BME280;41086;46.736;15.666;2023-02-22T06:21:16;98502.31;;;-0.87;100.00
55217;BME280;41086;46.736;15.666;2023-02-22T06:23:43;98494.91;;;-0.67;100.00
55217;BME280;41086;46.736;15.666;2023-02-22T06:26:10;98507.59;;;-0.53;100.00
55217;BME280;41086;46.736;15.666;2023-02-22T06:28:37;98509.28;;;-0.51;100.00
55217;BME280;41086;46.736;15.666;2023-02-22T06:31:04;98518.69;;;-0.45;100.00
55217;BME280;41086;46.736;15.666;2023-02-22T06:33:30;98527.56;;;-0.54;100.00
55217;BME280;41086;46.736;15.666;2023-02-22T06:35:57;98527.56;;;-0.54;100.00
55217;BME280;41086;46.736;15.666;2023-02-22T06:38:25;98523.25;;;-0.55;100.00
55217;BME280;41086;46.736;15.666;2023-02-22T06:40:53;98532.47;;;-0.40;100.00
55217;BME280;41086;46.736;15.666;2023-02-22T06:43:21;98533.47;;;-0.46;100.00
55217;BME280;41086;46.736;15.666;2023-02-22T06:45:50;98537.75;;;-0.43;100.00
55217;BME280;41086;46.736;15.666;2023-02-22T06:48:17;98538.59;;;-0.42;100.00
55217;BME280;41086;46.736;15.666;2023-02-22T06:50:44;98544.47;;;-0.34;100.00
55217;BME280;41086;46.736;15.666;2023-02-22T06:53:10;98516.75;;;-0.37;100.00
55217;BME280;41086;46.736;15.666;2023-02-22T06:55:37;98545.56;;;-0.07;100.00
55217;BME280;41086;46.736;15.666;2023-02-22T06:58:04;98546.16;;;0.04;100.00
55217;BME280;41086;46.736;15.666;2023-02-22T07:00:32;98553.78;;;0.12;100.00
55217;BME280;41086;46.736;15.666;2023-02-22T07:02:59;98547.28;;;0.27;100.00
55217;BME280;41086;46.736;15.666;2023-02-22T07:05:27;98550.25;;;0.47;100.00
55217;BME280;41086;46.736;15.666;2023-02-22T07:08:00;98563.00;;;0.58;100.00
55217;BME280;41086;46.736;15.666;2023-02-22T07:10:29;98564.38;;;0.71;100.00
55217;BME280;41086;46.736;15.666;2023-02-22T07:12:57;98565.97;;;0.77;100.00
55217;BME280;41086;46.736;15.666;2023-02-22T07:15:25;98575.41;;;0.81;100.00
55217;BME280;41086;46.736;15.666;2023-02-22T07:17:53;98572.59;;;0.88;100.00
55217;BME280;41086;46.736;15.666;2023-02-22T07:20:21;98558.47;;;0.96;100.00
55217;BME280;41086;46.736;15.666;2023-02-22T07:22:49;98574.19;;;1.24;100.00
55217;BME280;41086;46.736;15.666;2023-02-22T07:25:18;98578.91;;;1.41;100.00
55217;BME280;41086;46.736;15.666;2023-02-22T07:27:45;98575.63;;;1.62;100.00
55217;BME280;41086;46.736;15.666;2023-02-22T07:30:17;98590.84;;;1.77;100.00
55217;BME280;41086;46.736;15.666;2023-02-22T07:32:45;98591.16;;;1.95;100.00
55217;BME280;41086;46.736;15.666;2023-02-22T07:35:13;98595.03;;;2.10;100.00
55217;BME280;41086;46.736;15.666;2023-02-22T07:37:40;98604.19;;;2.23;100.00
55217;BME280;41086;46.736;15.666;2023-02-22T07:40:07;98607.69;;;2.49;100.00
55217;BME280;41086;46.736;15.666;2023-02-22T07:42:48;98615.06;;;2.62;100.00
55217;BME280;41086;46.736;15.666;2023-02-22T07:45:15;98617.22;;;2.76;100.00
55217;BME280;41086;46.736;15.666;2023-02-22T07:47:42;98616.09;;;2.83;100.00
55217;BME280;41086;46.736;15.666;2023-02-22T07:50:09;98608.88;;;2.90;100.00
55217;BME280;41086;46.736;15.666;2023-02-22T07:52:36;98622.28;;;3.06;100.00
55217;BME280;41086;46.736;15.666;2023-02-22T07:55:03;98626.03;;;3.22;100.00
55217;BME280;41086;46.736;15.666;2023-02-22T07:57:29;98619.13;;;3.45;100.00
55217;BME280;41086;46.736;15.666;2023-02-22T07:59:56;98619.50;;;3.58;100.00
55217;BME280;41086;46.736;15.666;2023-02-22T08:02:25;98626.59;;;3.77;100.00
55217;BME280;41086;46.736;15.666;2023-02-22T08:04:52;98621.84;;;3.87;100.00
55217;BME280;41086;46.736;15.666;2023-02-22T08:07:18;98623.19;;;4.19;100.00
55217;BME280;41086;46.736;15.666;2023-02-22T08:09:45;98613.63;;;4.18;100.00
55217;BME280;41086;46.736;15.666;2023-02-22T08:12:12;98631.13;;;4.60;100.00
55217;BME280;41086;46.736;15.666;2023-02-22T08:14:39;98630.34;;;4.79;100.00
55217;BME280;41086;46.736;15.666;2023-02-22T08:17:05;98618.06;;;4.59;100.00
55217;BME280;41086;46.736;15.666;2023-02-22T08:19:34;98620.19;;;4.92;100.00
55217;BME280;41086;46.736;15.666;2023-02-22T08:22:01;98630.97;;;5.25;100.00
55217;BME280;41086;46.736;15.666;2023-02-22T08:24:27;98632.28;;;5.35;100.00
55217;BME280;41086;46.736;15.666;2023-02-22T08:26:54;98635.25;;;5.46;100.00
55217;BME280;41086;46.736;15.666;2023-02-22T08:29:21;98632.19;;;5.55;100.00
55217;BME280;41086;46.736;15.666;2023-02-22T08:31:49;98634.69;;;5.77;100.00
55217;BME280;41086;46.736;15.666;2023-02-22T08:34:19;98631.31;;;5.75;100.00
55217;BME280;41086;46.736;15.666;2023-02-22T08:36:46;98621.88;;;5.89;100.00
55217;BME280;41086;46.736;15.666;2023-02-22T08:39:13;98630.78;;;6.05;100.00
55217;BME280;41086;46.736;15.666;2023-02-22T08:41:40;98628.91;;;6.26;100.00
55217;BME280;41086;46.736;15.666;2023-02-22T08:44:06;98621.16;;;6.23;100.00
55217;BME280;41086;46.736;15.666;2023-02-22T08:46:33;98628.16;;;6.59;100.00
55217;BME280;41086;46.736;15.666;2023-02-22T08:49:00;98609.56;;;6.44;100.00
55217;BME280;41086;46.736;15.666;2023-02-22T08:51:28;98624.38;;;6.82;100.00
55217;BME280;41086;46.736;15.666;2023-02-22T08:53:55;98634.91;;;7.17;100.00
55217;BME280;41086;46.736;15.666;2023-02-22T08:56:21;98626.44;;;7.27;100.00
55217;BME280;41086;46.736;15.666;2023-02-22T08:58:48;98628.97;;;7.29;100.00
55217;BME280;41086;46.736;15.666;2023-02-22T09:01:15;98632.50;;;7.61;100.00
55217;BME280;41086;46.736;15.666;2023-02-22T09:03:57;98631.34;;;7.83;100.00
55217;BME280;41086;46.736;15.666;2023-02-22T09:06:23;98610.06;;;7.86;100.00
55217;BME280;41086;46.736;15.666;2023-02-22T09:08:50;98628.00;;;8.27;100.00
55217;BME280;41086;46.736;15.666;2023-02-22T09:11:17;98629.03;;;8.56;100.00
55217;BME280;41086;46.736;15.666;2023-02-22T09:13:44;98627.31;;;8.85;100.00
55217;BME280;41086;46.736;15.666;2023-02-22T09:16:11;98626.56;;;8.97;100.00
55217;BME280;41086;46.736;15.666;2023-02-22T09:18:37;98626.31;;;9.16;100.00
55217;BME280;41086;46.736;15.666;2023-02-22T09:21:11;98627.66;;;9.52;100.00
55217;BME280;41086;46.736;15.666;2023-02-22T09:23:37;98622.66;;;9.47;100.00
55217;BME280;41086;46.736;15.666;2023-02-22T09:26:07;98610.94;;;9.51;100.00
55217;BME280;41086;46.736;15.666;2023-02-22T09:28:34;98623.22;;;9.38;100.00
55217;BME280;41086;46.736;15.666;2023-02-22T09:31:01;98613.66;;;9.21;100.00
55217;BME280;41086;46.736;15.666;2023-02-22T09:33:28;98618.88;;;9.23;100.00
55217;BME280;41086;46.736;15.666;2023-02-22T09:35:55;98627.28;;;9.58;100.00
55217;BME280;41086;46.736;15.666;2023-02-22T09:38:22;98617.44;;;9.74;100.00
55217;BME280;41086;46.736;15.666;2023-02-22T09:40:53;98621.66;;;9.91;100.00
55217;BME280;41086;46.736;15.666;2023-02-22T09:43:31;98615.47;;;10.05;100.00
55217;BME280;41086;46.736;15.666;2023-02-22T09:48:53;98608.25;;;10.49;100.00
55217;BME280;41086;46.736;15.666;2023-02-22T09:51:32;98607.50;;;10.47;100.00
55217;BME280;41086;46.736;15.666;2023-02-22T09:54:04;98606.47;;;10.49;100.00
55217;BME280;41086;46.736;15.666;2023-02-22T09:56:32;98600.03;;;10.66;100.00
55217;BME280;41086;46.736;15.666;2023-02-22T09:59:01;98600.88;;;10.67;100.00
55217;BME280;41086;46.736;15.666;2023-02-22T10:01:38;98602.66;;;11.19;98.87
55217;BME280;41086;46.736;15.666;2023-02-22T10:04:18;98592.75;;;11.59;98.71
55217;BME280;41086;46.736;15.666;2023-02-22T10:09:25;98590.03;;;11.72;94.28
55217;BME280;41086;46.736;15.666;2023-02-22T10:11:58;98595.28;;;12.34;90.79
55217;BME280;41086;46.736;15.666;2023-02-22T10:14:37;98591.13;;;12.78;86.57
55217;BME280;41086;46.736;15.666;2023-02-22T10:20:13;98581.13;;;14.17;81.40
55217;BME280;41086;46.736;15.666;2023-02-22T10:25:35;98562.59;;;14.48;71.02
55217;BME280;41086;46.736;15.666;2023-02-22T10:28:17;98565.44;;;14.67;73.38
55217;BME280;41086;46.736;15.666;2023-02-22T10:31:07;98561.81;;;15.41;67.37
55217;BME280;41086;46.736;15.666;2023-02-22T10:33:41;98555.69;;;16.00;64.10
55217;BME280;41086;46.736;15.666;2023-02-22T10:36:17;98555.75;;;16.68;62.29
55217;BME280;41086;46.736;15.666;2023-02-22T10:38:58;98552.50;;;16.94;57.91
55217;BME280;41086;46.736;15.666;2023-02-22T10:41:32;98549.34;;;17.18;57.73
55217;BME280;41086;46.736;15.666;2023-02-22T10:44:00;98543.13;;;17.17;56.03
55217;BME280;41086;46.736;15.666;2023-02-22T10:46:29;98534.72;;;17.49;54.55
55217;BME280;41086;46.736;15.666;2023-02-22T10:49:01;98535.34;;;17.61;53.65
55217;BME280;41086;46.736;15.666;2023-02-22T10:51:29;98521.28;;;16.26;56.57
55217;BME280;41086;46.736;15.666;2023-02-22T10:54:24;98520.53;;;16.92;56.89
55217;BME280;41086;46.736;15.666;2023-02-22T10:56:54;98517.72;;;17.59;56.41
55217;BME280;41086;46.736;15.666;2023-02-22T10:59:40;98504.19;;;17.88;52.95
55217;BME280;41086;46.736;15.666;2023-02-22T11:02:19;98509.44;;;18.25;51.37
55217;BME280;41086;46.736;15.666;2023-02-22T11:04:51;98507.28;;;17.93;51.17
55217;BME280;41086;46.736;15.666;2023-02-22T11:07:28;98509.41;;;17.62;54.55
55217;BME280;41086;46.736;15.666;2023-02-22T11:10:06;98496.84;;;17.35;55.26
55217;BME280;41086;46.736;15.666;2023-02-22T11:12:40;98491.31;;;16.99;55.26
55217;BME280;41086;46.736;15.666;2023-02-22T11:17:50;98485.38;;;17.42;55.78
55217;BME280;41086;46.736;15.666;2023-02-22T11:20:29;98475.22;;;17.46;54.40
55217;BME280;41086;46.736;15.666;2023-02-22T11:23:02;98466.78;;;17.68;52.71
55217;BME280;41086;46.736;15.666;2023-02-22T11:25:34;98467.50;;;17.88;53.69
55217;BME280;41086;46.736;15.666;2023-02-22T11:28:08;98465.00;;;17.77;54.72
55217;BME280;41086;46.736;15.666;2023-02-22T11:30:35;98471.16;;;17.42;53.83
55217;BME280;41086;46.736;15.666;2023-02-22T11:41:12;98443.03;;;17.73;53.67
55217;BME280;41086;46.736;15.666;2023-02-22T11:43:45;98445.09;;;17.89;53.54
55217;BME280;41086;46.736;15.666;2023-02-22T11:46:20;98433.59;;;17.79;50.62
55217;BME280;41086;46.736;15.666;2023-02-22T11:51:47;98425.84;;;18.12;50.30
55217;BME280;41086;46.736;15.666;2023-02-22T12:00:21;98411.31;;;17.79;50.44
55217;BME280;41086;46.736;15.666;2023-02-22T12:14:43;98404.97;;;17.52;51.25
55217;BME280;41086;46.736;15.666;2023-02-22T12:17:17;98392.84;;;17.93;51.84
55217;BME280;41086;46.736;15.666;2023-02-22T12:19:52;98383.22;;;17.55;51.45
55217;BME280;41086;46.736;15.666;2023-02-22T12:25:02;98376.81;;;17.48;50.59
55217;BME280;41086;46.736;15.666;2023-02-22T12:27:57;98369.53;;;17.40;50.90
55217;BME280;41086;46.736;15.666;2023-02-22T12:30:38;98366.81;;;16.95;52.80
55217;BME280;41086;46.736;15.666;2023-02-22T12:33:22;98382.72;;;16.96;53.67
55217;BME280;41086;46.736;15.666;2023-02-22T12:35:54;98375.06;;;17.01;52.54
55217;BME280;41086;46.736;15.666;2023-02-22T12:38:42;98368.56;;;16.20;53.70
55217;BME280;41086;46.736;15.666;2023-02-22T12:41:44;98373.78;;;16.21;55.05
55217;BME280;41086;46.736;15.666;2023-02-22T12:44:28;98363.25;;;16.10;55.16
55217;BME280;41086;46.736;15.666;2023-02-22T12:46:57;98355.56;;;16.44;54.90
55217;BME280;41086;46.736;15.666;2023-02-22T12:49:48;98354.59;;;16.45;54.77
55217;BME280;41086;46.736;15.666;2023-02-22T12:52:45;98348.75;;;16.59;53.50
55217;BME280;41086;46.736;15.666;2023-02-22T13:00:45;98345.91;;;16.80;53.33
55217;BME280;41086;46.736;15.666;2023-02-22T13:11:59;98333.16;;;16.92;52.87
55217;BME280;41086;46.736;15.666;2023-02-22T13:17:21;98330.81;;;17.07;51.71
55217;BME280;41086;46.736;15.666;2023-02-22T13:20:12;98329.66;;;17.10;50.32
55217;BME280;41086;46.736;15.666;2023-02-22T13:23:09;98324.66;;;17.96;48.77
55217;BME280;41086;46.736;15.666;2023-02-22T13:25:54;98321.59;;;18.35;46.60
55217;BME280;41086;46.736;15.666;2023-02-22T13:28:44;98323.59;;;17.71;47.52
55217;BME280;41086;46.736;15.666;2023-02-22T13:36:29;98323.50;;;18.77;47.12
55217;BME280;41086;46.736;15.666;2023-02-22T13:44:34;98315.00;;;18.29;47.45
55217;BME280;41086;46.736;15.666;2023-02-22T13:48:06;98317.53;;;17.69;48.29
55217;BME280;41086;46.736;15.666;2023-02-22T13:52:55;98290.91;;;17.67;48.58
55217;BME280;41086;46.736;15.666;2023-02-22T13:55:30;98301.63;;;17.85;47.41
55217;BME280;41086;46.736;15.666;2023-02-22T13:58:09;98294.66;;;17.92;47.84
55217;BME280;41086;46.736;15.666;2023-02-22T14:00:46;98298.19;;;18.53;47.19
55217;BME280;41086;46.736;15.666;2023-02-22T14:14:09;98294.06;;;18.07;48.32
55217;BME280;41086;46.736;15.666;2023-02-22T14:16:36;98289.50;;;18.25;47.42
55217;BME280;41086;46.736;15.666;2023-02-22T14:19:19;98287.28;;;18.47;47.53
55217;BME280;41086;46.736;15.666;2023-02-22T14:21:57;98289.78;;;18.48;46.93
55217;BME280;41086;46.736;15.666;2023-02-22T14:24:42;98281.34;;;18.35;46.91
55217;BME280;41086;46.736;15.666;2023-02-22T14:27:10;98281.69;;;18.40;47.41
55217;BME280;41086;46.736;15.666;2023-02-22T14:29:48;98279.31;;;18.37;47.54
55217;BME280;41086;46.736;15.666;2023-02-22T14:32:16;98279.56;;;17.91;48.62
55217;BME280;41086;46.736;15.666;2023-02-22T14:34:49;98280.53;;;17.90;48.63
55217;BME280;41086;46.736;15.666;2023-02-22T14:37:21;98285.94;;;17.72;48.55
55217;BME280;41086;46.736;15.666;2023-02-22T14:40:00;98282.81;;;17.59;50.24
55217;BME280;41086;46.736;15.666;2023-02-22T14:42:42;98276.16;;;16.82;51.98
55217;BME280;41086;46.736;15.666;2023-02-22T14:48:16;98271.66;;;16.08;57.76
55217;BME280;41086;46.736;15.666;2023-02-22T14:50:57;98276.34;;;15.96;57.90
55217;BME280;41086;46.736;15.666;2023-02-22T14:53:42;98286.91;;;15.59;59.40
55217;BME280;41086;46.736;15.666;2023-02-22T14:59:16;98289.44;;;15.50;60.56
55217;BME280;41086;46.736;15.666;2023-02-22T15:01:44;98278.03;;;15.48;62.13
55217;BME280;41086;46.736;15.666;2023-02-22T15:04:34;98281.84;;;15.56;62.55
55217;BME280;41086;46.736;15.666;2023-02-22T15:07:19;98283.09;;;15.51;62.26
55217;BME280;41086;46.736;15.666;2023-02-22T15:09:46;98267.34;;;15.39;63.51
55217;BME280;41086;46.736;15.666;2023-02-22T15:12:26;98280.44;;;15.32;64.82
55217;BME280;41086;46.736;15.666;2023-02-22T15:15:17;98273.69;;;15.38;64.67